sensor_id;sensor_type;location;lat;lon;timestamp;pressure;altitude;pressure_sealevel;temperature;humidity
61528;BME280;47395;42.032;-8.634;2023-02-12T00:00:14;102202.53;;;5.81;64.20
61528;BME280;47395;42.032;-8.634;2023-02-12T00:02:15;102206.88;;;5.80;64.56
61528;BME280;47395;42.032;-8.634;2023-02-12T00:04:16;102209.50;;;5.80;64.82
61528;BME280;47395;42.032;-8.634;2023-02-12T00:06:17;102207.75;;;5.76;64.61
61528;BME280;47395;42.032;-8.634;2023-02-12T00:08:17;102202.56;;;5.70;64.66
61528;BME280;47395;42.032;-8.634;2023-02-12T00:10:18;102206.91;;;5.68;64.63
61528;BME280;47395;42.032;-8.634;2023-02-12T00:12:19;102211.31;;;5.62;64.56
61528;BME280;47395;42.032;-8.634;2023-02-12T00:14:19;102206.06;;;5.61;65.41
61528;BME280;47395;42.032;-8.634;2023-02-12T00:16:24;102201.69;;;5.69;65.86
61528;BME280;47395;42.032;-8.634;2023-02-12T00:18:25;102210.38;;;5.78;65.68
61528;BME280;47395;42.032;-8.634;2023-02-12T00:20:26;102212.94;;;5.88;65.17
61528;BME280;47395;42.032;-8.634;2023-02-12T00:22:26;102211.19;;;5.91;65.01
61528;BME280;47395;42.032;-8.634;2023-02-12T00:24:28;102203.31;;;5.92;64.66
61528;BME280;47395;42.032;-8.634;2023-02-12T00:26:29;102205.94;;;5.94;64.67
61528;BME280;47395;42.032;-8.634;2023-02-12T00:28:30;102203.34;;;5.91;64.52
61528;BME280;47395;42.032;-8.634;2023-02-12T00:30:30;102209.47;;;5.86;64.42
61528;BME280;47395;42.032;-8.634;2023-02-12T00:32:31;102206.84;;;5.88;65.14
61528;BME280;47395;42.032;-8.634;2023-02-12T00:34:32;102209.41;;;6.05;65.77
61528;BME280;47395;42.032;-8.634;2023-02-12T00:36:32;102212.78;;;6.24;64.50
61528;BME280;47395;42.032;-8.634;2023-02-12T00:38:33;102211.97;;;6.18;63.26
61528;BME280;47395;42.032;-8.634;2023-02-12T00:40:33;102214.53;;;6.24;63.56
61528;BME280;47395;42.032;-8.634;2023-02-12T00:42:34;102207.63;;;6.09;63.30
61528;BME280;47395;42.032;-8.634;2023-02-12T00:44:35;102205.09;;;5.93;63.78
61528;BME280;47395;42.032;-8.634;2023-02-12T00:46:36;102204.25;;;5.80;63.97
61528;BME280;47395;42.032;-8.634;2023-02-12T00:48:37;102204.34;;;5.65;64.67
61528;BME280;47395;42.032;-8.634;2023-02-12T00:50:38;102204.34;;;5.61;64.82
61528;BME280;47395;42.032;-8.634;2023-02-12T00:52:40;102197.38;;;5.54;65.15
61528;BME280;47395;42.032;-8.634;2023-02-12T00:54:41;102203.53;;;5.44;65.44
61528;BME280;47395;42.032;-8.634;2023-02-12T00:56:42;102208.78;;;5.33;65.39
61528;BME280;47395;42.032;-8.634;2023-02-12T00:58:43;102203.59;;;5.27;65.80
61528;BME280;47395;42.032;-8.634;2023-02-12T01:00:43;102202.78;;;5.11;65.74
61528;BME280;47395;42.032;-8.634;2023-02-12T01:02:44;102198.41;;;5.06;65.95
61528;BME280;47395;42.032;-8.634;2023-02-12T01:04:44;102201.06;;;4.97;65.41
61528;BME280;47395;42.032;-8.634;2023-02-12T01:06:45;102199.28;;;4.96;65.23
61528;BME280;47395;42.032;-8.634;2023-02-12T01:08:48;102187.13;;;4.86;65.35
61528;BME280;47395;42.032;-8.634;2023-02-12T01:10:56;102195.84;;;4.83;65.30
61528;BME280;47395;42.032;-8.634;2023-02-12T01:12:57;102197.56;;;4.81;65.59
61528;BME280;47395;42.032;-8.634;2023-02-12T01:14:58;102211.50;;;4.63;66.14
61528;BME280;47395;42.032;-8.634;2023-02-12T01:16:59;102201.94;;;4.69;66.09
61528;BME280;47395;42.032;-8.634;2023-02-12T01:19:00;102203.66;;;4.70;66.02
61528;BME280;47395;42.032;-8.634;2023-02-12T01:21:00;102199.31;;;4.82;66.02
61528;BME280;47395;42.032;-8.634;2023-02-12T01:23:02;102207.13;;;4.85;65.89
61528;BME280;47395;42.032;-8.634;2023-02-12T01:25:03;102194.06;;;4.83;66.29
61528;BME280;47395;42.032;-8.634;2023-02-12T01:27:05;102199.31;;;4.57;65.19
61528;BME280;47395;42.032;-8.634;2023-02-12T01:29:06;102192.34;;;4.73;66.08
61528;BME280;47395;42.032;-8.634;2023-02-12T01:31:10;102202.78;;;4.82;65.64
61528;BME280;47395;42.032;-8.634;2023-02-12T01:33:11;102183.63;;;4.85;66.11
61528;BME280;47395;42.032;-8.634;2023-02-12T01:35:11;102187.13;;;4.89;66.24
61528;BME280;47395;42.032;-8.634;2023-02-12T01:37:14;102175.75;;;5.21;67.00
61528;BME280;47395;42.032;-8.634;2023-02-12T01:39:15;102177.44;;;5.39;66.35
61528;BME280;47395;42.032;-8.634;2023-02-12T01:41:19;102172.13;;;5.56;65.47
61528;BME280;47395;42.032;-8.634;2023-02-12T01:43:20;102187.94;;;5.13;64.53
61528;BME280;47395;42.032;-8.634;2023-02-12T01:47:43;102177.53;;;5.06;65.87
61528;BME280;47395;42.032;-8.634;2023-02-12T01:49:45;102193.19;;;4.89;65.73
61528;BME280;47395;42.032;-8.634;2023-02-12T01:51:46;102200.19;;;4.76;65.66
61528;BME280;47395;42.032;-8.634;2023-02-12T01:53:51;102192.38;;;4.67;65.94
61528;BME280;47395;42.032;-8.634;2023-02-12T01:55:54;102194.09;;;4.65;66.17
61528;BME280;47395;42.032;-8.634;2023-02-12T01:57:57;102195.81;;;4.58;66.32
61528;BME280;47395;42.032;-8.634;2023-02-12T01:59:58;102194.09;;;4.57;66.47
61528;BME280;47395;42.032;-8.634;2023-02-12T02:02:00;102190.59;;;4.56;66.53
61528;BME280;47395;42.032;-8.634;2023-02-12T02:04:07;102193.22;;;4.60;66.49
61528;BME280;47395;42.032;-8.634;2023-02-12T02:08:36;102181.06;;;4.60;66.04
61528;BME280;47395;42.032;-8.634;2023-02-12T02:10:39;102192.34;;;4.50;66.25
61528;BME280;47395;42.032;-8.634;2023-02-12T02:12:40;102194.09;;;4.55;66.32
61528;BME280;47395;42.032;-8.634;2023-02-12T02:14:59;102183.66;;;4.65;66.69
61528;BME280;47395;42.032;-8.634;2023-02-12T02:19:47;102183.66;;;4.77;66.97
61528;BME280;47395;42.032;-8.634;2023-02-12T02:22:01;102187.13;;;4.87;65.99
61528;BME280;47395;42.032;-8.634;2023-02-12T02:24:25;102169.72;;;4.97;66.18
61528;BME280;47395;42.032;-8.634;2023-02-12T02:26:47;102178.41;;;4.77;65.91
61528;BME280;47395;42.032;-8.634;2023-02-12T02:30:05;102184.53;;;4.75;65.66
61528;BME280;47395;42.032;-8.634;2023-02-12T02:31:29;102185.38;;;4.67;65.89
61528;BME280;47395;42.032;-8.634;2023-02-12T02:33:39;102178.44;;;4.82;67.17
61528;BME280;47395;42.032;-8.634;2023-02-12T02:35:46;102170.56;;;4.94;65.55
61528;BME280;47395;42.032;-8.634;2023-02-12T02:37:53;102178.41;;;4.97;65.11
61528;BME280;47395;42.032;-8.634;2023-02-12T02:40:17;102180.13;;;5.00;65.59
61528;BME280;47395;42.032;-8.634;2023-02-12T02:44:47;102178.41;;;4.99;64.32
61528;BME280;47395;42.032;-8.634;2023-02-12T02:46:50;102181.03;;;4.88;64.67
61528;BME280;47395;42.032;-8.634;2023-02-12T02:48:53;102182.78;;;4.75;64.53
61528;BME280;47395;42.032;-8.634;2023-02-12T02:50:56;102191.50;;;4.62;65.33
61528;BME280;47395;42.032;-8.634;2023-02-12T02:53:03;102181.91;;;4.59;65.56
61528;BME280;47395;42.032;-8.634;2023-02-12T02:55:06;102188.00;;;4.41;65.60
61528;BME280;47395;42.032;-8.634;2023-02-12T02:57:09;102174.94;;;4.30;66.84
61528;BME280;47395;42.032;-8.634;2023-02-12T02:59:12;102180.16;;;4.30;65.94
61528;BME280;47395;42.032;-8.634;2023-02-12T03:01:23;102180.19;;;4.33;66.64
61528;BME280;47395;42.032;-8.634;2023-02-12T03:03:30;102180.19;;;4.41;66.75
61528;BME280;47395;42.032;-8.634;2023-02-12T03:05:34;102174.09;;;4.54;66.55
61528;BME280;47395;42.032;-8.634;2023-02-12T03:07:44;102169.75;;;4.63;66.77
61528;BME280;47395;42.032;-8.634;2023-02-12T03:09:48;102161.91;;;4.86;66.60
61528;BME280;47395;42.032;-8.634;2023-02-12T03:11:51;102169.69;;;4.88;65.93
61528;BME280;47395;42.032;-8.634;2023-02-12T03:14:05;102179.28;;;4.90;64.97
61528;BME280;47395;42.032;-8.634;2023-02-12T03:16:16;102178.41;;;4.76;65.36
61528;BME280;47395;42.032;-8.634;2023-02-12T03:18:24;102175.81;;;4.82;65.21
61528;BME280;47395;42.032;-8.634;2023-02-12T03:20:28;102178.44;;;4.80;65.21
61528;BME280;47395;42.032;-8.634;2023-02-12T03:22:30;102176.69;;;4.84;65.07
61528;BME280;47395;42.032;-8.634;2023-02-12T03:25:15;102179.28;;;4.82;64.79
61528;BME280;47395;42.032;-8.634;2023-02-12T03:27:30;102166.22;;;4.82;65.46
61528;BME280;47395;42.032;-8.634;2023-02-12T03:29:23;102170.56;;;4.97;65.29
61528;BME280;47395;42.032;-8.634;2023-02-12T03:31:30;102164.44;;;5.14;65.78
61528;BME280;47395;42.032;-8.634;2023-02-12T03:36:02;102159.94;;;5.57;62.65
61528;BME280;47395;42.032;-8.634;2023-02-12T03:40:32;102151.22;;;5.53;62.55
61528;BME280;47395;42.032;-8.634;2023-02-12T03:44:52;102163.41;;;5.54;61.50
61528;BME280;47395;42.032;-8.634;2023-02-12T03:46:57;102159.09;;;5.47;62.06
61528;BME280;47395;42.032;-8.634;2023-02-12T03:49:02;102156.50;;;5.42;63.13
61528;BME280;47395;42.032;-8.634;2023-02-12T03:51:09;102160.78;;;5.59;63.05
61528;BME280;47395;42.032;-8.634;2023-02-12T03:53:13;102155.56;;;5.56;62.09
61528;BME280;47395;42.032;-8.634;2023-02-12T03:55:14;102153.88;;;5.47;62.06
61528;BME280;47395;42.032;-8.634;2023-02-12T03:57:19;102156.53;;;5.34;62.09
61528;BME280;47395;42.032;-8.634;2023-02-12T03:59:21;102156.56;;;5.23;62.61
61528;BME280;47395;42.032;-8.634;2023-02-12T04:01:23;102151.25;;;5.41;62.46
61528;BME280;47395;42.032;-8.634;2023-02-12T04:03:23;102162.59;;;5.36;62.47
61528;BME280;47395;42.032;-8.634;2023-02-12T04:05:25;102153.00;;;5.49;63.79
61528;BME280;47395;42.032;-8.634;2023-02-12T04:07:25;102154.69;;;5.58;62.56
61528;BME280;47395;42.032;-8.634;2023-02-12T04:09:26;102156.44;;;5.59;63.36
61528;BME280;47395;42.032;-8.634;2023-02-12T04:11:34;102151.16;;;5.69;62.27
61528;BME280;47395;42.032;-8.634;2023-02-12T04:16:01;102155.59;;;5.43;61.16
61528;BME280;47395;42.032;-8.634;2023-02-12T04:20:43;102145.25;;;5.17;62.38
61528;BME280;47395;42.032;-8.634;2023-02-12T04:33:57;102133.06;;;6.63;59.66
61528;BME280;47395;42.032;-8.634;2023-02-12T04:36:05;102133.72;;;6.85;59.75
61528;BME280;47395;42.032;-8.634;2023-02-12T04:40:38;102131.59;;;7.18;59.33
61528;BME280;47395;42.032;-8.634;2023-02-12T04:42:40;102133.34;;;7.21;58.61
61528;BME280;47395;42.032;-8.634;2023-02-12T04:44:42;102128.00;;;7.29;58.79
61528;BME280;47395;42.032;-8.634;2023-02-12T04:46:46;102115.97;;;7.09;56.04
61528;BME280;47395;42.032;-8.634;2023-02-12T04:48:51;102119.28;;;7.27;57.73
61528;BME280;47395;42.032;-8.634;2023-02-12T04:50:52;102121.75;;;7.39;58.17
61528;BME280;47395;42.032;-8.634;2023-02-12T04:52:53;102127.97;;;7.32;56.77
61528;BME280;47395;42.032;-8.634;2023-02-12T04:54:53;102117.50;;;7.32;57.20
61528;BME280;47395;42.032;-8.634;2023-02-12T04:56:54;102129.41;;;7.56;57.52
61528;BME280;47395;42.032;-8.634;2023-02-12T04:58:55;102129.47;;;7.49;58.02
61528;BME280;47395;42.032;-8.634;2023-02-12T05:00:57;102132.13;;;7.47;58.25
61528;BME280;47395;42.032;-8.634;2023-02-12T05:02:58;102129.56;;;7.42;57.83
61528;BME280;47395;42.032;-8.634;2023-02-12T05:04:59;102125.25;;;7.38;58.59
61528;BME280;47395;42.032;-8.634;2023-02-12T05:06:59;102123.84;;;7.11;58.16
61528;BME280;47395;42.032;-8.634;2023-02-12T05:09:00;102123.00;;;7.07;58.66
61528;BME280;47395;42.032;-8.634;2023-02-12T05:11:05;102123.38;;;6.71;59.30
61528;BME280;47395;42.032;-8.634;2023-02-12T05:13:06;102126.31;;;6.37;58.58
61528;BME280;47395;42.032;-8.634;2023-02-12T05:15:07;102130.06;;;6.00;59.52
61528;BME280;47395;42.032;-8.634;2023-02-12T05:17:08;102136.19;;;5.93;60.02
61528;BME280;47395;42.032;-8.634;2023-02-12T05:19:09;102130.28;;;5.59;60.97
61528;BME280;47395;42.032;-8.634;2023-02-12T05:21:10;102129.47;;;5.49;61.10
61528;BME280;47395;42.032;-8.634;2023-02-12T05:23:11;102133.91;;;5.29;61.45
61528;BME280;47395;42.032;-8.634;2023-02-12T05:25:11;102137.50;;;5.00;62.52
61528;BME280;47395;42.032;-8.634;2023-02-12T05:27:12;102134.88;;;4.81;63.40
61528;BME280;47395;42.032;-8.634;2023-02-12T05:29:13;102130.56;;;4.72;63.91
61528;BME280;47395;42.032;-8.634;2023-02-12T05:31:15;102129.72;;;4.65;63.81
61528;BME280;47395;42.032;-8.634;2023-02-12T05:33:15;102127.97;;;4.63;64.26
61528;BME280;47395;42.032;-8.634;2023-02-12T05:35:16;102131.44;;;4.65;64.34
61528;BME280;47395;42.032;-8.634;2023-02-12T05:37:17;102133.16;;;4.67;64.41
61528;BME280;47395;42.032;-8.634;2023-02-12T05:39:17;102132.31;;;4.73;64.02
61528;BME280;47395;42.032;-8.634;2023-02-12T05:41:19;102134.91;;;4.79;63.89
61528;BME280;47395;42.032;-8.634;2023-02-12T05:43:20;102141.00;;;4.77;65.10
61528;BME280;47395;42.032;-8.634;2023-02-12T05:45:21;102135.75;;;4.88;64.47
61528;BME280;47395;42.032;-8.634;2023-02-12T05:47:27;102134.00;;;5.01;64.87
61528;BME280;47395;42.032;-8.634;2023-02-12T05:49:27;102127.84;;;5.13;64.20
61528;BME280;47395;42.032;-8.634;2023-02-12T05:51:28;102140.06;;;5.01;63.71
61528;BME280;47395;42.032;-8.634;2023-02-12T05:53:31;102131.34;;;5.10;64.22
61528;BME280;47395;42.032;-8.634;2023-02-12T05:55:32;102133.09;;;5.11;63.67
61528;BME280;47395;42.032;-8.634;2023-02-12T05:57:32;102127.81;;;5.25;62.92
61528;BME280;47395;42.032;-8.634;2023-02-12T05:59:33;102132.13;;;5.40;63.78
61528;BME280;47395;42.032;-8.634;2023-02-12T06:01:34;102134.69;;;5.51;61.67
61528;BME280;47395;42.032;-8.634;2023-02-12T06:03:35;102136.38;;;5.65;63.92
61528;BME280;47395;42.032;-8.634;2023-02-12T06:05:36;102136.31;;;5.71;60.30
61528;BME280;47395;42.032;-8.634;2023-02-12T06:07:37;102132.97;;;5.42;60.65
61528;BME280;47395;42.032;-8.634;2023-02-12T06:09:37;102140.00;;;5.28;60.90
61528;BME280;47395;42.032;-8.634;2023-02-12T06:11:38;102136.53;;;5.18;61.20
61528;BME280;47395;42.032;-8.634;2023-02-12T06:13:39;102146.19;;;5.02;61.85
61528;BME280;47395;42.032;-8.634;2023-02-12T06:15:39;102138.34;;;4.88;61.99
61528;BME280;47395;42.032;-8.634;2023-02-12T06:17:40;102136.66;;;4.77;62.43
61528;BME280;47395;42.032;-8.634;2023-02-12T06:19:41;102137.53;;;4.73;62.86
61528;BME280;47395;42.032;-8.634;2023-02-12T06:21:41;102141.88;;;4.65;62.78
61528;BME280;47395;42.032;-8.634;2023-02-12T06:23:42;102139.28;;;4.65;63.10
61528;BME280;47395;42.032;-8.634;2023-02-12T06:25:43;102134.06;;;4.66;64.15
61528;BME280;47395;42.032;-8.634;2023-02-12T06:27:44;102137.53;;;4.76;63.79
61528;BME280;47395;42.032;-8.634;2023-02-12T06:29:45;102137.53;;;4.79;62.78
61528;BME280;47395;42.032;-8.634;2023-02-12T06:31:45;102138.38;;;4.89;65.06
61528;BME280;47395;42.032;-8.634;2023-02-12T06:33:46;102139.13;;;5.26;65.48
61528;BME280;47395;42.032;-8.634;2023-02-12T06:35:47;102132.97;;;5.41;63.27
61528;BME280;47395;42.032;-8.634;2023-02-12T06:37:47;102137.22;;;5.67;63.73
61528;BME280;47395;42.032;-8.634;2023-02-12T06:39:48;102140.56;;;5.91;62.84
61528;BME280;47395;42.032;-8.634;2023-02-12T06:41:49;102136.06;;;6.18;61.79
61528;BME280;47395;42.032;-8.634;2023-02-12T06:43:50;102138.59;;;6.29;61.44
61528;BME280;47395;42.032;-8.634;2023-02-12T06:45:50;102132.31;;;6.47;61.10
61528;BME280;47395;42.032;-8.634;2023-02-12T06:47:51;102135.75;;;6.55;59.36
61528;BME280;47395;42.032;-8.634;2023-02-12T06:49:52;102140.06;;;6.59;58.79
61528;BME280;47395;42.032;-8.634;2023-02-12T06:51:52;102139.19;;;6.59;58.13
61528;BME280;47395;42.032;-8.634;2023-02-12T06:53:53;102142.88;;;6.40;58.33
61528;BME280;47395;42.032;-8.634;2023-02-12T06:55:54;102145.88;;;5.81;58.91
61528;BME280;47395;42.032;-8.634;2023-02-12T06:57:55;102146.66;;;5.90;60.59
61528;BME280;47395;42.032;-8.634;2023-02-12T06:59:55;102155.47;;;5.76;60.34
61528;BME280;47395;42.032;-8.634;2023-02-12T07:01:56;102158.00;;;5.90;60.07
61528;BME280;47395;42.032;-8.634;2023-02-12T07:03:58;102156.28;;;5.83;59.79
61528;BME280;47395;42.032;-8.634;2023-02-12T07:05:59;102150.22;;;5.76;59.76
61528;BME280;47395;42.032;-8.634;2023-02-12T07:07:59;102163.47;;;5.40;61.28
61528;BME280;47395;42.032;-8.634;2023-02-12T07:10:00;102153.00;;;5.48;59.79
61528;BME280;47395;42.032;-8.634;2023-02-12T07:12:01;102166.97;;;5.36;60.76
61528;BME280;47395;42.032;-8.634;2023-02-12T07:14:02;102166.09;;;5.42;60.88
61528;BME280;47395;42.032;-8.634;2023-02-12T07:16:08;102152.16;;;5.43;61.16
61528;BME280;47395;42.032;-8.634;2023-02-12T07:18:09;102152.16;;;5.38;61.24
61528;BME280;47395;42.032;-8.634;2023-02-12T07:20:10;102157.38;;;5.36;61.20
61528;BME280;47395;42.032;-8.634;2023-02-12T07:22:11;102162.63;;;5.32;61.17
61528;BME280;47395;42.032;-8.634;2023-02-12T07:24:12;102160.03;;;5.26;61.29
61528;BME280;47395;42.032;-8.634;2023-02-12T07:26:13;102156.56;;;5.28;61.57
61528;BME280;47395;42.032;-8.634;2023-02-12T07:28:14;102161.75;;;5.33;61.86
61528;BME280;47395;42.032;-8.634;2023-02-12T07:30:15;102161.75;;;5.33;61.63
61528;BME280;47395;42.032;-8.634;2023-02-12T07:32:15;102161.78;;;5.23;61.59
61528;BME280;47395;42.032;-8.634;2023-02-12T07:34:16;102167.03;;;5.11;62.21
61528;BME280;47395;42.032;-8.634;2023-02-12T07:36:18;102167.06;;;5.16;62.24
61528;BME280;47395;42.032;-8.634;2023-02-12T07:38:19;102170.56;;;4.94;62.03
61528;BME280;47395;42.032;-8.634;2023-02-12T07:40:19;102171.44;;;5.00;62.50
61528;BME280;47395;42.032;-8.634;2023-02-12T07:42:20;102167.09;;;4.91;61.96
61528;BME280;47395;42.032;-8.634;2023-02-12T07:44:23;102161.00;;;4.89;62.75
61528;BME280;47395;42.032;-8.634;2023-02-12T07:46:25;102172.31;;;4.95;62.88
61528;BME280;47395;42.032;-8.634;2023-02-12T07:48:28;102176.66;;;4.96;62.37
61528;BME280;47395;42.032;-8.634;2023-02-12T07:50:29;102183.63;;;4.97;62.23
61528;BME280;47395;42.032;-8.634;2023-02-12T07:52:30;102188.00;;;4.97;62.11
61528;BME280;47395;42.032;-8.634;2023-02-12T07:54:30;102191.47;;;4.99;62.12
61528;BME280;47395;42.032;-8.634;2023-02-12T07:56:33;102183.63;;;5.04;62.04
61528;BME280;47395;42.032;-8.634;2023-02-12T07:58:34;102194.03;;;5.10;62.00
61528;BME280;47395;42.032;-8.634;2023-02-12T08:00:35;102189.72;;;5.09;61.60
61528;BME280;47395;42.032;-8.634;2023-02-12T08:02:36;102189.69;;;5.17;62.40
61528;BME280;47395;42.032;-8.634;2023-02-12T08:04:36;102195.72;;;5.38;62.36
61528;BME280;47395;42.032;-8.634;2023-02-12T08:06:38;102200.84;;;5.61;61.06
61528;BME280;47395;42.032;-8.634;2023-02-12T08:08:39;102195.56;;;5.81;60.43
61528;BME280;47395;42.032;-8.634;2023-02-12T08:10:40;102203.38;;;5.87;59.98
61528;BME280;47395;42.032;-8.634;2023-02-12T08:12:41;102205.03;;;6.07;60.11
61528;BME280;47395;42.032;-8.634;2023-02-12T08:14:41;102200.59;;;6.17;59.30
61528;BME280;47395;42.032;-8.634;2023-02-12T08:16:43;102202.31;;;6.26;58.89
61528;BME280;47395;42.032;-8.634;2023-02-12T08:18:44;102204.88;;;6.27;58.20
61528;BME280;47395;42.032;-8.634;2023-02-12T08:20:44;102210.16;;;6.26;58.94
61528;BME280;47395;42.032;-8.634;2023-02-12T08:22:45;102205.75;;;6.31;58.64
61528;BME280;47395;42.032;-8.634;2023-02-12T08:24:46;102210.91;;;6.42;58.32
61528;BME280;47395;42.032;-8.634;2023-02-12T08:26:46;102209.16;;;6.44;58.36
61528;BME280;47395;42.032;-8.634;2023-02-12T08:28:48;102205.00;;;6.15;58.29
61528;BME280;47395;42.032;-8.634;2023-02-12T08:30:49;102203.28;;;6.11;59.10
61528;BME280;47395;42.032;-8.634;2023-02-12T08:32:50;102202.19;;;6.38;58.76
61528;BME280;47395;42.032;-8.634;2023-02-12T08:34:50;102211.75;;;6.49;58.33
61528;BME280;47395;42.032;-8.634;2023-02-12T08:36:52;102210.75;;;6.62;57.94
61528;BME280;47395;42.032;-8.634;2023-02-12T08:38:56;102202.75;;;6.78;58.46
61528;BME280;47395;42.032;-8.634;2023-02-12T08:41:11;102214.84;;;6.95;56.87
61528;BME280;47395;42.032;-8.634;2023-02-12T08:43:12;102207.31;;;7.48;56.91
61528;BME280;47395;42.032;-8.634;2023-02-12T08:45:13;102209.72;;;8.86;53.77
61528;BME280;47395;42.032;-8.634;2023-02-12T08:47:14;102210.13;;;11.09;48.08
61528;BME280;47395;42.032;-8.634;2023-02-12T08:49:18;102208.09;;;12.92;42.99
61528;BME280;47395;42.032;-8.634;2023-02-12T08:51:21;102199.59;;;14.26;40.01
61528;BME280;47395;42.032;-8.634;2023-02-12T08:53:22;102207.72;;;15.48;37.34
61528;BME280;47395;42.032;-8.634;2023-02-12T08:55:22;102209.56;;;16.77;34.81
61528;BME280;47395;42.032;-8.634;2023-02-12T08:57:23;102199.31;;;17.71;32.39
61528;BME280;47395;42.032;-8.634;2023-02-12T08:59:24;102205.97;;;18.43;31.24
61528;BME280;47395;42.032;-8.634;2023-02-12T09:01:27;102205.16;;;17.94;32.02
61528;BME280;47395;42.032;-8.634;2023-02-12T09:03:28;102205.84;;;17.81;32.26
61528;BME280;47395;42.032;-8.634;2023-02-12T09:05:29;102200.75;;;18.86;30.78
61528;BME280;47395;42.032;-8.634;2023-02-12T09:07:30;102207.41;;;19.81;29.72
61528;BME280;47395;42.032;-8.634;2023-02-12T09:09:30;102206.53;;;20.22;28.51
61528;BME280;47395;42.032;-8.634;2023-02-12T09:11:32;102204.63;;;21.04;27.66
61528;BME280;47395;42.032;-8.634;2023-02-12T09:13:33;102211.41;;;21.10;27.29
61528;BME280;47395;42.032;-8.634;2023-02-12T09:15:37;102204.28;;;20.83;27.62
61528;BME280;47395;42.032;-8.634;2023-02-12T09:17:38;102199.88;;;21.47;26.86
61528;BME280;47395;42.032;-8.634;2023-02-12T09:19:41;102204.06;;;21.51;26.79
61528;BME280;47395;42.032;-8.634;2023-02-12T09:21:41;102199.00;;;21.59;26.59
61528;BME280;47395;42.032;-8.634;2023-02-12T09:23:42;102197.50;;;21.42;26.69
61528;BME280;47395;42.032;-8.634;2023-02-12T09:25:43;102206.47;;;20.37;28.43
61528;BME280;47395;42.032;-8.634;2023-02-12T09:27:44;102208.59;;;19.48;28.45
61528;BME280;47395;42.032;-8.634;2023-02-12T09:29:45;102204.03;;;20.47;28.33
61528;BME280;47395;42.032;-8.634;2023-02-12T09:31:46;102192.94;;;20.79;28.12
61528;BME280;47395;42.032;-8.634;2023-02-12T09:33:46;102192.56;;;21.62;26.67
61528;BME280;47395;42.032;-8.634;2023-02-12T09:35:47;102192.47;;;21.50;26.53
61528;BME280;47395;42.032;-8.634;2023-02-12T09:37:48;102185.84;;;22.77;25.42
61528;BME280;47395;42.032;-8.634;2023-02-12T09:39:49;102193.56;;;23.16;24.81
61528;BME280;47395;42.032;-8.634;2023-02-12T09:42:14;102199.16;;;22.67;25.50
61528;BME280;47395;42.032;-8.634;2023-02-12T09:46:32;102191.75;;;22.46;25.80
61528;BME280;47395;42.032;-8.634;2023-02-12T09:50:55;102194.81;;;22.53;25.87
61528;BME280;47395;42.032;-8.634;2023-02-12T09:52:56;102196.09;;;22.36;26.15
61528;BME280;47395;42.032;-8.634;2023-02-12T09:54:58;102198.59;;;21.90;26.61
61528;BME280;47395;42.032;-8.634;2023-02-12T09:56:59;102194.06;;;22.39;26.03
61528;BME280;47395;42.032;-8.634;2023-02-12T09:59:05;102193.19;;;22.75;25.92
61528;BME280;47395;42.032;-8.634;2023-02-12T10:01:10;102191.75;;;22.46;26.44
61528;BME280;47395;42.032;-8.634;2023-02-12T10:03:13;102184.69;;;23.38;25.68
61528;BME280;47395;42.032;-8.634;2023-02-12T10:05:24;102192.09;;;24.02;24.77
61528;BME280;47395;42.032;-8.634;2023-02-12T10:07:39;102192.44;;;25.05;23.24
61528;BME280;47395;42.032;-8.634;2023-02-12T10:12:02;102191.75;;;24.39;23.73
61528;BME280;47395;42.032;-8.634;2023-02-12T10:14:08;102184.88;;;24.77;23.29
61528;BME280;47395;42.032;-8.634;2023-02-12T10:17:36;102187.91;;;23.76;24.47
61528;BME280;47395;42.032;-8.634;2023-02-12T10:18:48;102187.31;;;24.17;24.23
61528;BME280;47395;42.032;-8.634;2023-02-12T10:21:07;102190.66;;;23.97;24.64
61528;BME280;47395;42.032;-8.634;2023-02-12T10:24:35;102184.97;;;24.45;23.76
61528;BME280;47395;42.032;-8.634;2023-02-12T10:25:48;102184.00;;;23.69;24.73
61528;BME280;47395;42.032;-8.634;2023-02-12T10:27:50;102181.34;;;24.02;24.52
61528;BME280;47395;42.032;-8.634;2023-02-12T10:29:51;102174.28;;;23.56;25.21
61528;BME280;47395;42.032;-8.634;2023-02-12T10:31:54;102182.44;;;23.99;24.76
61528;BME280;47395;42.032;-8.634;2023-02-12T10:33:55;102182.13;;;24.46;24.24
61528;BME280;47395;42.032;-8.634;2023-02-12T10:36:03;102179.34;;;24.79;24.15
61528;BME280;47395;42.032;-8.634;2023-02-12T10:38:11;102176.25;;;25.05;23.61
61528;BME280;47395;42.032;-8.634;2023-02-12T10:42:37;102171.06;;;26.04;21.88
61528;BME280;47395;42.032;-8.634;2023-02-12T10:44:38;102175.19;;;26.48;22.03
61528;BME280;47395;42.032;-8.634;2023-02-12T10:46:39;102176.53;;;27.19;21.69
61528;BME280;47395;42.032;-8.634;2023-02-12T10:48:40;102172.63;;;26.16;22.32
61528;BME280;47395;42.032;-8.634;2023-02-12T10:52:15;102163.09;;;27.00;22.07
61528;BME280;47395;42.032;-8.634;2023-02-12T10:53:05;102164.59;;;28.05;20.76
61528;BME280;47395;42.032;-8.634;2023-02-12T10:55:27;102167.50;;;28.30;19.85
61528;BME280;47395;42.032;-8.634;2023-02-12T10:57:29;102174.53;;;28.40;19.48
61528;BME280;47395;42.032;-8.634;2023-02-12T10:59:30;102168.41;;;28.20;19.64
61528;BME280;47395;42.032;-8.634;2023-02-12T11:01:35;102163.25;;;28.27;19.76
61528;BME280;47395;42.032;-8.634;2023-02-12T11:03:36;102169.13;;;28.22;20.06
61528;BME280;47395;42.032;-8.634;2023-02-12T11:05:40;102167.16;;;27.42;19.96
61528;BME280;47395;42.032;-8.634;2023-02-12T11:07:45;102169.63;;;26.59;21.11
61528;BME280;47395;42.032;-8.634;2023-02-12T11:09:48;102166.34;;;25.15;22.99
61528;BME280;47395;42.032;-8.634;2023-02-12T11:11:49;102168.06;;;25.67;22.56
61528;BME280;47395;42.032;-8.634;2023-02-12T11:14:02;102174.72;;;25.12;22.94
61528;BME280;47395;42.032;-8.634;2023-02-12T11:16:04;102171.69;;;25.47;22.04
61528;BME280;47395;42.032;-8.634;2023-02-12T11:18:05;102178.31;;;25.84;22.18
61528;BME280;47395;42.032;-8.634;2023-02-12T11:20:18;102173.50;;;25.77;22.05
61528;BME280;47395;42.032;-8.634;2023-02-12T11:22:20;102178.53;;;27.17;21.83
61528;BME280;47395;42.032;-8.634;2023-02-12T11:24:31;102183.75;;;26.33;21.46
61528;BME280;47395;42.032;-8.634;2023-02-12T11:26:32;102175.22;;;26.28;21.64